sensor_id;sensor_type;location;lat;lon;timestamp;pressure;altitude;pressure_sealevel;temperature;humidity
39275;BME280;24980;48.874;2.332;2022-09-09T00:00:19;100515.76;;;26.43;44.03
39275;BME280;24980;48.874;2.332;2022-09-09T00:03:14;100516.94;;;26.44;44.00
39275;BME280;24980;48.874;2.332;2022-09-09T00:05:44;100511.36;;;26.42;43.96
39275;BME280;24980;48.874;2.332;2022-09-09T00:08:03;100512.67;;;26.39;43.97
39275;BME280;24980;48.874;2.332;2022-09-09T00:10:36;100510.25;;;26.41;43.92
39275;BME280;24980;48.874;2.332;2022-09-09T00:15:27;100510.76;;;26.41;43.89
39275;BME280;24980;48.874;2.332;2022-09-09T00:17:56;100505.39;;;26.42;43.86
39275;BME280;24980;48.874;2.332;2022-09-09T00:20:32;100506.05;;;26.35;43.89
39275;BME280;24980;48.874;2.332;2022-09-09T00:23:14;100502.89;;;26.24;43.95
39275;BME280;24980;48.874;2.332;2022-09-09T00:25:42;100507.91;;;26.22;43.93
39275;BME280;24980;48.874;2.332;2022-09-09T00:27:54;100508.83;;;26.22;43.91
39275;BME280;24980;48.874;2.332;2022-09-09T00:30:26;100511.08;;;26.26;43.87
39275;BME280;24980;48.874;2.332;2022-09-09T00:32:58;100509.73;;;26.27;43.83
39275;BME280;24980;48.874;2.332;2022-09-09T00:35:32;100507.31;;;26.29;43.81
39275;BME280;24980;48.874;2.332;2022-09-09T00:38:00;100507.71;;;26.30;43.81
39275;BME280;24980;48.874;2.332;2022-09-09T00:40:33;100509.08;;;26.31;43.80
39275;BME280;24980;48.874;2.332;2022-09-09T00:45:56;100506.95;;;26.29;43.87
39275;BME280;24980;48.874;2.332;2022-09-09T00:48:06;100509.09;;;26.31;43.88
39275;BME280;24980;48.874;2.332;2022-09-09T00:50:46;100507.77;;;26.28;43.95
39275;BME280;24980;48.874;2.332;2022-09-09T00:53:51;100508.58;;;26.24;43.99
39275;BME280;24980;48.874;2.332;2022-09-09T00:55:46;100510.05;;;26.15;44.07
39275;BME280;24980;48.874;2.332;2022-09-09T00:58:00;100495.58;;;26.10;44.11
39275;BME280;24980;48.874;2.332;2022-09-09T01:00:41;100495.37;;;26.08;44.13
39275;BME280;24980;48.874;2.332;2022-09-09T01:05:39;100487.44;;;26.02;44.17
39275;BME280;24980;48.874;2.332;2022-09-09T01:08:14;100492.84;;;25.95;44.21
39275;BME280;24980;48.874;2.332;2022-09-09T01:10:53;100492.12;;;25.91;44.19
39275;BME280;24980;48.874;2.332;2022-09-09T01:13:13;100496.62;;;25.88;44.14
39275;BME280;24980;48.874;2.332;2022-09-09T01:15:38;100493.23;;;25.78;44.16
39275;BME280;24980;48.874;2.332;2022-09-09T01:18:11;100491.70;;;25.80;44.06
39275;BME280;24980;48.874;2.332;2022-09-09T01:20:55;100490.86;;;25.80;43.99
39275;BME280;24980;48.874;2.332;2022-09-09T01:26:04;100490.64;;;25.86;43.85
39275;BME280;24980;48.874;2.332;2022-09-09T01:28:10;100490.47;;;25.88;43.83
39275;BME280;24980;48.874;2.332;2022-09-09T01:30:40;100492.70;;;25.92;43.78
39275;BME280;24980;48.874;2.332;2022-09-09T01:33:15;100491.53;;;25.88;43.79
39275;BME280;24980;48.874;2.332;2022-09-09T01:35:54;100496.34;;;25.83;43.81
39275;BME280;24980;48.874;2.332;2022-09-09T01:38:10;100484.73;;;25.82;43.81
39275;BME280;24980;48.874;2.332;2022-09-09T01:40:40;100490.52;;;25.82;43.80
39275;BME280;24980;48.874;2.332;2022-09-09T01:43:10;100488.55;;;25.83;43.76
39275;BME280;24980;48.874;2.332;2022-09-09T01:45:42;100499.88;;;25.77;43.81
39275;BME280;24980;48.874;2.332;2022-09-09T01:48:11;100505.06;;;25.79;43.79
39275;BME280;24980;48.874;2.332;2022-09-09T01:50:41;100507.48;;;25.80;43.78
39275;BME280;24980;48.874;2.332;2022-09-09T01:53:12;100503.03;;;25.84;43.76
39275;BME280;24980;48.874;2.332;2022-09-09T01:56:04;100497.46;;;25.83;43.78
39275;BME280;24980;48.874;2.332;2022-09-09T02:00:51;100495.02;;;25.87;43.76
39275;BME280;24980;48.874;2.332;2022-09-09T02:03:24;100495.47;;;25.86;43.78
39275;BME280;24980;48.874;2.332;2022-09-09T02:06:14;100498.79;;;25.86;43.79
39275;BME280;24980;48.874;2.332;2022-09-09T02:08:21;100492.34;;;25.84;43.80
39275;BME280;24980;48.874;2.332;2022-09-09T02:11:08;100495.40;;;25.84;43.80
39275;BME280;24980;48.874;2.332;2022-09-09T02:13:19;100490.09;;;25.82;43.82
39275;BME280;24980;48.874;2.332;2022-09-09T02:15:55;100484.70;;;25.81;43.83
39275;BME280;24980;48.874;2.332;2022-09-09T02:18:20;100482.34;;;25.83;43.82
39275;BME280;24980;48.874;2.332;2022-09-09T02:20:47;100484.89;;;25.85;43.81
39275;BME280;24980;48.874;2.332;2022-09-09T02:23:17;100476.83;;;25.83;43.83
39275;BME280;24980;48.874;2.332;2022-09-09T02:25:50;100481.16;;;25.81;43.84
39275;BME280;24980;48.874;2.332;2022-09-09T02:28:21;100477.02;;;25.72;43.94
39275;BME280;24980;48.874;2.332;2022-09-09T02:30:50;100473.08;;;25.74;43.94
39275;BME280;24980;48.874;2.332;2022-09-09T02:33:19;100473.98;;;25.79;43.90
39275;BME280;24980;48.874;2.332;2022-09-09T02:35:50;100466.95;;;25.78;43.91
39275;BME280;24980;48.874;2.332;2022-09-09T02:38:21;100466.16;;;25.82;43.90
39275;BME280;24980;48.874;2.332;2022-09-09T02:40:49;100463.78;;;25.82;43.90
39275;BME280;24980;48.874;2.332;2022-09-09T02:43:20;100460.84;;;25.83;43.90
39275;BME280;24980;48.874;2.332;2022-09-09T02:46:00;100464.08;;;25.83;43.90
39275;BME280;24980;48.874;2.332;2022-09-09T02:48:30;100466.00;;;25.79;43.94
39275;BME280;24980;48.874;2.332;2022-09-09T02:53:39;100464.11;;;25.72;43.96
39275;BME280;24980;48.874;2.332;2022-09-09T02:56:09;100456.16;;;25.69;43.96
39275;BME280;24980;48.874;2.332;2022-09-09T02:58:24;100463.37;;;25.65;43.96
39275;BME280;24980;48.874;2.332;2022-09-09T03:00:54;100459.41;;;25.64;43.94
39275;BME280;24980;48.874;2.332;2022-09-09T03:03:25;100451.41;;;25.65;43.93
39275;BME280;24980;48.874;2.332;2022-09-09T03:05:54;100458.41;;;25.66;43.91
39275;BME280;24980;48.874;2.332;2022-09-09T03:08:24;100458.62;;;25.65;43.92
39275;BME280;24980;48.874;2.332;2022-09-09T03:10:54;100470.66;;;25.68;43.91
39275;BME280;24980;48.874;2.332;2022-09-09T03:13:24;100463.09;;;25.68;43.89
39275;BME280;24980;48.874;2.332;2022-09-09T03:15:55;100459.47;;;25.65;43.92
39275;BME280;24980;48.874;2.332;2022-09-09T03:18:25;100453.80;;;25.64;43.93
39275;BME280;24980;48.874;2.332;2022-09-09T03:20:55;100457.34;;;25.55;44.00
39275;BME280;24980;48.874;2.332;2022-09-09T03:23:26;100458.98;;;25.56;43.98
39275;BME280;24980;48.874;2.332;2022-09-09T03:25:58;100457.04;;;25.56;43.97
39275;BME280;24980;48.874;2.332;2022-09-09T03:28:27;100457.63;;;25.54;43.98
39275;BME280;24980;48.874;2.332;2022-09-09T03:31:00;100460.11;;;25.46;44.02
39275;BME280;24980;48.874;2.332;2022-09-09T03:33:30;100461.28;;;25.46;44.01
39275;BME280;24980;48.874;2.332;2022-09-09T03:35:58;100468.47;;;25.50;43.96
39275;BME280;24980;48.874;2.332;2022-09-09T03:38:29;100467.99;;;25.48;43.97
39275;BME280;24980;48.874;2.332;2022-09-09T03:40:59;100473.50;;;25.48;43.96
39275;BME280;24980;48.874;2.332;2022-09-09T03:43:29;100468.20;;;25.47;43.99
39275;BME280;24980;48.874;2.332;2022-09-09T03:45:59;100452.11;;;25.43;44.04
39275;BME280;24980;48.874;2.332;2022-09-09T03:48:29;100459.97;;;25.42;44.10
39275;BME280;24980;48.874;2.332;2022-09-09T03:51:01;100451.19;;;25.40;44.14
39275;BME280;24980;48.874;2.332;2022-09-09T03:53:30;100450.19;;;25.48;44.14
39275;BME280;24980;48.874;2.332;2022-09-09T03:56:00;100462.52;;;25.50;44.14
39275;BME280;24980;48.874;2.332;2022-09-09T03:58:30;100464.17;;;25.54;44.12
39275;BME280;24980;48.874;2.332;2022-09-09T04:01:03;100465.42;;;25.57;44.09
39275;BME280;24980;48.874;2.332;2022-09-09T04:03:31;100460.39;;;25.60;44.08
39275;BME280;24980;48.874;2.332;2022-09-09T04:06:03;100462.30;;;25.62;44.10
39275;BME280;24980;48.874;2.332;2022-09-09T04:08:31;100458.84;;;25.63;44.10
39275;BME280;24980;48.874;2.332;2022-09-09T04:11:03;100461.86;;;25.65;44.09
39275;BME280;24980;48.874;2.332;2022-09-09T04:13:36;100456.84;;;25.65;44.11
39275;BME280;24980;48.874;2.332;2022-09-09T04:16:03;100451.66;;;25.67;44.11
39275;BME280;24980;48.874;2.332;2022-09-09T04:18:33;100451.73;;;25.68;44.11
39275;BME280;24980;48.874;2.332;2022-09-09T04:21:03;100458.03;;;25.67;44.15
39275;BME280;24980;48.874;2.332;2022-09-09T04:23:45;100453.08;;;25.68;44.15
39275;BME280;24980;48.874;2.332;2022-09-09T04:26:06;100455.42;;;25.66;44.17
39275;BME280;24980;48.874;2.332;2022-09-09T04:28:36;100461.38;;;25.65;44.18
39275;BME280;24980;48.874;2.332;2022-09-09T04:31:10;100457.17;;;25.58;44.24
39275;BME280;24980;48.874;2.332;2022-09-09T04:33:37;100456.61;;;25.56;44.24
39275;BME280;24980;48.874;2.332;2022-09-09T04:36:06;100457.62;;;25.57;44.23
39275;BME280;24980;48.874;2.332;2022-09-09T04:38:37;100455.00;;;25.56;44.21
39275;BME280;24980;48.874;2.332;2022-09-09T04:41:07;100461.86;;;25.57;44.22
39275;BME280;24980;48.874;2.332;2022-09-09T04:43:38;100458.72;;;25.57;44.20
39275;BME280;24980;48.874;2.332;2022-09-09T04:46:09;100466.19;;;25.56;44.23
39275;BME280;24980;48.874;2.332;2022-09-09T04:48:38;100463.23;;;25.56;44.20
39275;BME280;24980;48.874;2.332;2022-09-09T04:51:11;100463.55;;;25.57;44.18
39275;BME280;24980;48.874;2.332;2022-09-09T04:53:39;100464.70;;;25.59;44.17
39275;BME280;24980;48.874;2.332;2022-09-09T04:56:12;100457.67;;;25.60;44.16
39275;BME280;24980;48.874;2.332;2022-09-09T04:58:41;100465.30;;;25.61;44.20
39275;BME280;24980;48.874;2.332;2022-09-09T05:01:13;100470.41;;;25.62;44.26
39275;BME280;24980;48.874;2.332;2022-09-09T05:03:43;100465.81;;;25.63;44.28
39275;BME280;24980;48.874;2.332;2022-09-09T05:06:14;100465.78;;;25.64;44.30
39275;BME280;24980;48.874;2.332;2022-09-09T05:08:43;100465.72;;;25.63;44.32
39275;BME280;24980;48.874;2.332;2022-09-09T05:11:20;100476.16;;;25.63;44.32
39275;BME280;24980;48.874;2.332;2022-09-09T05:13:44;100479.39;;;25.63;44.33
39275;BME280;24980;48.874;2.332;2022-09-09T05:16:14;100483.98;;;25.58;44.36
39275;BME280;24980;48.874;2.332;2022-09-09T05:18:44;100477.38;;;25.58;44.35
39275;BME280;24980;48.874;2.332;2022-09-09T05:21:16;100483.19;;;25.61;44.32
39275;BME280;24980;48.874;2.332;2022-09-09T05:23:46;100481.41;;;25.65;44.38
39275;BME280;24980;48.874;2.332;2022-09-09T05:26:17;100487.54;;;25.68;44.57
39275;BME280;24980;48.874;2.332;2022-09-09T05:28:46;100486.02;;;25.70;44.83
39275;BME280;24980;48.874;2.332;2022-09-09T05:31:17;100485.47;;;25.72;45.06
39275;BME280;24980;48.874;2.332;2022-09-09T05:33:47;100485.34;;;25.72;45.25
39275;BME280;24980;48.874;2.332;2022-09-09T05:36:18;100485.25;;;25.73;45.38
39275;BME280;24980;48.874;2.332;2022-09-09T05:38:48;100481.27;;;25.70;45.52
39275;BME280;24980;48.874;2.332;2022-09-09T05:41:22;100482.78;;;25.68;45.58
39275;BME280;24980;48.874;2.332;2022-09-09T05:43:48;100486.02;;;25.68;45.63
39275;BME280;24980;48.874;2.332;2022-09-09T05:46:23;100487.58;;;25.67;45.65
39275;BME280;24980;48.874;2.332;2022-09-09T05:48:49;100490.31;;;25.66;45.65
39275;BME280;24980;48.874;2.332;2022-09-09T05:51:21;100489.05;;;25.65;45.65
39275;BME280;24980;48.874;2.332;2022-09-09T05:53:50;100483.41;;;25.65;45.62
39275;BME280;24980;48.874;2.332;2022-09-09T05:56:21;100484.03;;;25.64;45.61
39275;BME280;24980;48.874;2.332;2022-09-09T05:58:50;100481.84;;;25.63;45.59
39275;BME280;24980;48.874;2.332;2022-09-09T06:01:31;100481.57;;;25.64;45.57
39275;BME280;24980;48.874;2.332;2022-09-09T06:03:51;100485.25;;;25.62;45.54
39275;BME280;24980;48.874;2.332;2022-09-09T06:06:24;100483.65;;;25.60;45.52
39275;BME280;24980;48.874;2.332;2022-09-09T06:08:54;100486.12;;;25.59;45.48
39275;BME280;24980;48.874;2.332;2022-09-09T06:11:29;100486.91;;;25.54;45.48
39275;BME280;24980;48.874;2.332;2022-09-09T06:13:53;100480.05;;;25.54;45.43
39275;BME280;24980;48.874;2.332;2022-09-09T06:18:55;100483.55;;;25.44;45.41
39275;BME280;24980;48.874;2.332;2022-09-09T06:21:35;100490.38;;;25.43;45.37
39275;BME280;24980;48.874;2.332;2022-09-09T06:23:54;100486.61;;;25.42;45.32
39275;BME280;24980;48.874;2.332;2022-09-09T06:26:27;100487.39;;;25.39;45.33
39275;BME280;24980;48.874;2.332;2022-09-09T06:28:57;100494.62;;;25.38;45.29
39275;BME280;24980;48.874;2.332;2022-09-09T06:31:27;100491.23;;;25.36;45.28
39275;BME280;24980;48.874;2.332;2022-09-09T06:33:58;100488.22;;;25.34;45.27
39275;BME280;24980;48.874;2.332;2022-09-09T06:36:28;100489.60;;;25.31;45.30
39275;BME280;24980;48.874;2.332;2022-09-09T06:38:58;100487.05;;;25.34;45.25
39275;BME280;24980;48.874;2.332;2022-09-09T06:41:31;100492.02;;;25.33;45.22
39275;BME280;24980;48.874;2.332;2022-09-09T06:43:58;100494.23;;;25.33;45.22
39275;BME280;24980;48.874;2.332;2022-09-09T06:46:30;100484.98;;;25.32;45.23
39275;BME280;24980;48.874;2.332;2022-09-09T06:49:00;100487.98;;;25.31;45.26
39275;BME280;24980;48.874;2.332;2022-09-09T06:51:31;100495.19;;;25.29;45.29
39275;BME280;24980;48.874;2.332;2022-09-09T06:54:02;100488.16;;;25.26;45.29
39275;BME280;24980;48.874;2.332;2022-09-09T06:56:34;100484.73;;;25.24;45.27
39275;BME280;24980;48.874;2.332;2022-09-09T06:59:05;100487.09;;;25.20;45.25
39275;BME280;24980;48.874;2.332;2022-09-09T07:01:35;100487.05;;;25.16;45.25
39275;BME280;24980;48.874;2.332;2022-09-09T07:04:04;100493.03;;;25.11;45.22
39275;BME280;24980;48.874;2.332;2022-09-09T07:06:36;100500.25;;;25.08;45.20
39275;BME280;24980;48.874;2.332;2022-09-09T07:09:06;100497.58;;;25.05;45.18
39275;BME280;24980;48.874;2.332;2022-09-09T07:11:40;100499.87;;;25.04;45.13
39275;BME280;24980;48.874;2.332;2022-09-09T07:14:05;100500.29;;;25.00;45.11
39275;BME280;24980;48.874;2.332;2022-09-09T07:16:35;100501.75;;;24.99;45.08
39275;BME280;24980;48.874;2.332;2022-09-09T07:19:05;100503.07;;;25.00;45.04
39275;BME280;24980;48.874;2.332;2022-09-09T07:21:36;100502.69;;;24.99;45.03
39275;BME280;24980;48.874;2.332;2022-09-09T07:24:06;100501.81;;;24.97;45.00
39275;BME280;24980;48.874;2.332;2022-09-09T07:26:38;100509.98;;;24.96;45.00
39275;BME280;24980;48.874;2.332;2022-09-09T07:29:09;100503.03;;;24.94;44.98
39275;BME280;24980;48.874;2.332;2022-09-09T07:31:38;100514.31;;;24.90;44.99
39275;BME280;24980;48.874;2.332;2022-09-09T07:34:07;100511.22;;;24.86;44.98
39275;BME280;24980;48.874;2.332;2022-09-09T07:36:39;100522.25;;;24.79;45.00
39275;BME280;24980;48.874;2.332;2022-09-09T07:39:11;100527.19;;;24.70;45.04
39275;BME280;24980;48.874;2.332;2022-09-09T07:41:44;100522.67;;;24.69;45.01
39275;BME280;24980;48.874;2.332;2022-09-09T07:44:12;100524.28;;;24.71;44.94
39275;BME280;24980;48.874;2.332;2022-09-09T07:46:40;100531.05;;;24.72;44.92
39275;BME280;24980;48.874;2.332;2022-09-09T07:49:11;100527.75;;;24.69;44.93
39275;BME280;24980;48.874;2.332;2022-09-09T07:51:43;100527.72;;;24.63;44.96
39275;BME280;24980;48.874;2.332;2022-09-09T07:54:13;100530.59;;;24.64;44.92
39275;BME280;24980;48.874;2.332;2022-09-09T07:56:42;100533.64;;;24.64;44.91
39275;BME280;24980;48.874;2.332;2022-09-09T07:59:17;100524.19;;;24.56;44.94
39275;BME280;24980;48.874;2.332;2022-09-09T08:01:45;100530.55;;;24.48;44.99
39275;BME280;24980;48.874;2.332;2022-09-09T08:04:19;100535.09;;;24.49;44.98
39275;BME280;24980;48.874;2.332;2022-09-09T08:06:47;100540.45;;;24.46;44.96
39275;BME280;24980;48.874;2.332;2022-09-09T08:09:14;100533.33;;;24.43;44.99
39275;BME280;24980;48.874;2.332;2022-09-09T08:11:45;100543.27;;;24.42;44.99
39275;BME280;24980;48.874;2.332;2022-09-09T08:14:15;100542.06;;;24.43;44.97
39275;BME280;24980;48.874;2.332;2022-09-09T08:16:47;100556.24;;;24.44;44.96
39275;BME280;24980;48.874;2.332;2022-09-09T08:19:15;100545.30;;;24.39;44.96
39275;BME280;24980;48.874;2.332;2022-09-09T08:21:46;100548.17;;;24.36;44.98
39275;BME280;24980;48.874;2.332;2022-09-09T08:24:16;100555.89;;;24.42;44.90
39275;BME280;24980;48.874;2.332;2022-09-09T08:26:48;100547.67;;;24.42;44.90
39275;BME280;24980;48.874;2.332;2022-09-09T08:29:17;100552.75;;;24.39;44.93
39275;BME280;24980;48.874;2.332;2022-09-09T08:31:49;100550.81;;;24.35;44.98
39275;BME280;24980;48.874;2.332;2022-09-09T08:34:18;100554.53;;;24.36;45.01
39275;BME280;24980;48.874;2.332;2022-09-09T08:36:50;100549.52;;;24.37;45.04
39275;BME280;24980;48.874;2.332;2022-09-09T08:39:20;100550.38;;;24.39;45.08
39275;BME280;24980;48.874;2.332;2022-09-09T08:44:43;100551.31;;;24.39;45.09
39275;BME280;24980;48.874;2.332;2022-09-09T08:47:01;100554.43;;;24.43;45.06
39275;BME280;24980;48.874;2.332;2022-09-09T08:49:46;100553.73;;;24.47;45.02
39275;BME280;24980;48.874;2.332;2022-09-09T08:51:53;100561.95;;;24.46;45.02
39275;BME280;24980;48.874;2.332;2022-09-09T08:54:22;100560.39;;;24.41;45.04
39275;BME280;24980;48.874;2.332;2022-09-09T08:56:52;100565.55;;;24.38;45.07
39275;BME280;24980;48.874;2.332;2022-09-09T08:59:22;100563.06;;;24.43;45.03
39275;BME280;24980;48.874;2.332;2022-09-09T09:07:14;100576.18;;;24.70;44.98
39275;BME280;24980;48.874;2.332;2022-09-09T09:09:46;100573.75;;;24.75;45.00
39275;BME280;24980;48.874;2.332;2022-09-09T09:11:57;100582.70;;;24.82;45.04
39275;BME280;24980;48.874;2.332;2022-09-09T09:14:26;100585.02;;;24.88;45.08
39275;BME280;24980;48.874;2.332;2022-09-09T09:17:10;100586.22;;;24.93;45.13
39275;BME280;24980;48.874;2.332;2022-09-09T09:19:28;100594.07;;;24.97;45.18
39275;BME280;24980;48.874;2.332;2022-09-09T09:22:24;100595.75;;;25.00;45.22
39275;BME280;24980;48.874;2.332;2022-09-09T09:24:40;100593.55;;;25.03;45.25
39275;BME280;24980;48.874;2.332;2022-09-09T09:27:00;100590.66;;;25.06;45.28
39275;BME280;24980;48.874;2.332;2022-09-09T09:29:28;100598.78;;;25.07;45.32
39275;BME280;24980;48.874;2.332;2022-09-09T09:34:29;100603.27;;;25.10;45.38
39275;BME280;24980;48.874;2.332;2022-09-09T09:37:00;100606.05;;;25.10;45.40
39275;BME280;24980;48.874;2.332;2022-09-09T09:39:31;100606.48;;;25.12;45.41
39275;BME280;24980;48.874;2.332;2022-09-09T09:42:10;100613.58;;;25.14;45.44
39275;BME280;24980;48.874;2.332;2022-09-09T09:44:31;100620.23;;;25.15;45.46
39275;BME280;24980;48.874;2.332;2022-09-09T09:47:12;100620.12;;;25.15;45.50
39275;BME280;24980;48.874;2.332;2022-09-09T09:49:30;100626.63;;;25.17;45.54
39275;BME280;24980;48.874;2.332;2022-09-09T09:52:00;100625.91;;;25.18;45.57
39275;BME280;24980;48.874;2.332;2022-09-09T09:54:33;100622.33;;;25.18;45.58
39275;BME280;24980;48.874;2.332;2022-09-09T09:57:11;100622.73;;;25.20;45.58
39275;BME280;24980;48.874;2.332;2022-09-09T09:59:36;100618.77;;;25.21;45.58
39275;BME280;24980;48.874;2.332;2022-09-09T10:02:20;100620.37;;;25.21;45.58
39275;BME280;24980;48.874;2.332;2022-09-09T10:04:31;100618.31;;;25.22;45.56
39275;BME280;24980;48.874;2.332;2022-09-09T10:07:13;100622.47;;;25.23;45.56
39275;BME280;24980;48.874;2.332;2022-09-09T10:09:31;100620.92;;;25.23;45.55
39275;BME280;24980;48.874;2.332;2022-09-09T10:12:39;100628.81;;;25.23;45.54
39275;BME280;24980;48.874;2.332;2022-09-09T10:14:41;100629.50;;;25.23;45.53
39275;BME280;24980;48.874;2.332;2022-09-09T10:17:24;100634.11;;;25.24;45.52
39275;BME280;24980;48.874;2.332;2022-09-09T10:19:36;100628.55;;;25.24;45.51
39275;BME280;24980;48.874;2.332;2022-09-09T10:22:19;100635.03;;;25.24;45.52
39275;BME280;24980;48.874;2.332;2022-09-09T10:25:11;100628.72;;;25.24;45.51
39275;BME280;24980;48.874;2.332;2022-09-09T10:35:10;100636.78;;;25.29;45.51
39275;BME280;24980;48.874;2.332;2022-09-09T10:39:39;100639.82;;;25.29;45.52
39275;BME280;24980;48.874;2.332;2022-09-09T10:42:09;100639.94;;;25.30;45.53
39275;BME280;24980;48.874;2.332;2022-09-09T10:55:02;100626.69;;;25.34;45.54
39275;BME280;24980;48.874;2.332;2022-09-09T10:57:23;100632.01;;;25.37;45.52
39275;BME280;24980;48.874;2.332;2022-09-09T10:59:43;100629.85;;;25.39;45.52
39275;BME280;24980;48.874;2.332;2022-09-09T11:02:29;100629.12;;;25.40;45.51
39275;BME280;24980;48.874;2.332;2022-09-09T11:04:45;100640.92;;;25.39;45.49
39275;BME280;24980;48.874;2.332;2022-09-09T11:07:21;100632.39;;;25.39;45.51
39275;BME280;24980;48.874;2.332;2022-09-09T11:09:49;100627.13;;;25.39;45.52
39275;BME280;24980;48.874;2.332;2022-09-09T11:12:18;100627.06;;;25.39;45.52
39275;BME280;24980;48.874;2.332;2022-09-09T11:14:54;100627.41;;;25.38;45.51
39275;BME280;24980;48.874;2.332;2022-09-09T11:17:26;100630.28;;;25.39;45.51
39275;BME280;24980;48.874;2.332;2022-09-09T11:19:45;100619.88;;;25.40;45.51
39275;BME280;24980;48.874;2.332;2022-09-09T11:22:21;100620.62;;;25.40;45.51
39275;BME280;24980;48.874;2.332;2022-09-09T11:24:50;100626.69;;;25.42;45.51
39275;BME280;24980;48.874;2.332;2022-09-09T11:27:30;100622.28;;;25.42;45.50
39275;BME280;24980;48.874;2.332;2022-09-09T11:30:04;100619.57;;;25.42;45.51
39275;BME280;24980;48.874;2.332;2022-09-09T11:37:44;100619.05;;;25.42;45.51
39275;BME280;24980;48.874;2.332;2022-09-09T11:40:07;100622.61;;;25.42;45.51
39275;BME280;24980;48.874;2.332;2022-09-09T11:42:23;100635.94;;;25.42;45.50
39275;BME280;24980;48.874;2.332;2022-09-09T11:44:54;100640.27;;;25.42;45.50
39275;BME280;24980;48.874;2.332;2022-09-09T11:47:26;100641.03;;;25.42;45.49
39275;BME280;24980;48.874;2.332;2022-09-09T11:52:23;100643.61;;;25.41;45.48
39275;BME280;24980;48.874;2.332;2022-09-09T11:54:51;100643.45;;;25.40;45.46
39275;BME280;24980;48.874;2.332;2022-09-09T11:57:31;100642.85;;;25.40;45.44
39275;BME280;24980;48.874;2.332;2022-09-09T11:59:52;100642.66;;;25.41;45.42
39275;BME280;24980;48.874;2.332;2022-09-09T12:02:24;100650.89;;;25.41;45.40
39275;BME280;24980;48.874;2.332;2022-09-09T12:04:59;100657.27;;;25.41;45.40
39275;BME280;24980;48.874;2.332;2022-09-09T12:12:26;100668.12;;;25.41;45.35
39275;BME280;24980;48.874;2.332;2022-09-09T12:20:20;100669.56;;;25.41;45.32
39275;BME280;24980;48.874;2.332;2022-09-09T12:25:18;100673.66;;;25.40;45.32
39275;BME280;24980;48.874;2.332;2022-09-09T12:27:31;100674.41;;;25.40;45.31
39275;BME280;24980;48.874;2.332;2022-09-09T12:30:09;100685.19;;;25.41;45.31
39275;BME280;24980;48.874;2.332;2022-09-09T12:32:28;100685.69;;;25.41;45.28
39275;BME280;24980;48.874;2.332;2022-09-09T12:35:04;100678.56;;;25.41;45.27
39275;BME280;24980;48.874;2.332;2022-09-09T12:37:37;100677.71;;;25.41;45.26
39275;BME280;24980;48.874;2.332;2022-09-09T12:40:01;100676.33;;;25.42;45.26
39275;BME280;24980;48.874;2.332;2022-09-09T12:42:30;100677.53;;;25.44;45.30
39275;BME280;24980;48.874;2.332;2022-09-09T12:45:14;100678.19;;;25.46;45.31
39275;BME280;24980;48.874;2.332;2022-09-09T12:47:41;100680.77;;;25.46;45.35
39275;BME280;24980;48.874;2.332;2022-09-09T12:50:03;100686.28;;;25.47;45.36
39275;BME280;24980;48.874;2.332;2022-09-09T12:52:35;100689.91;;;25.47;45.35
39275;BME280;24980;48.874;2.332;2022-09-09T12:55:04;100694.67;;;25.47;45.35
39275;BME280;24980;48.874;2.332;2022-09-09T12:57:38;100695.52;;;25.47;45.33
39275;BME280;24980;48.874;2.332;2022-09-09T13:00:07;100696.27;;;25.48;45.33
39275;BME280;24980;48.874;2.332;2022-09-09T13:02:36;100690.84;;;25.47;45.32
39275;BME280;24980;48.874;2.332;2022-09-09T13:05:18;100689.83;;;25.47;45.31
39275;BME280;24980;48.874;2.332;2022-09-09T13:07:37;100698.71;;;25.46;45.31
39275;BME280;24980;48.874;2.332;2022-09-09T13:10:10;100701.59;;;25.46;45.31
39275;BME280;24980;48.874;2.332;2022-09-09T13:12:37;100698.38;;;25.46;45.30
39275;BME280;24980;48.874;2.332;2022-09-09T13:15:22;100695.88;;;25.46;45.29
39275;BME280;24980;48.874;2.332;2022-09-09T13:17:38;100706.81;;;25.47;45.29
39275;BME280;24980;48.874;2.332;2022-09-09T13:20:26;100718.91;;;25.46;45.30
39275;BME280;24980;48.874;2.332;2022-09-09T13:22:39;100724.55;;;25.46;45.30
39275;BME280;24980;48.874;2.332;2022-09-09T13:27:50;100720.10;;;25.46;45.30
39275;BME280;24980;48.874;2.332;2022-09-09T13:30:21;100724.09;;;25.45;45.31
39275;BME280;24980;48.874;2.332;2022-09-09T13:32:41;100726.20;;;25.46;45.32
39275;BME280;24980;48.874;2.332;2022-09-09T13:35:24;100725.36;;;25.46;45.32
39275;BME280;24980;48.874;2.332;2022-09-09T13:37:42;100721.72;;;25.45;45.32
39275;BME280;24980;48.874;2.332;2022-09-09T13:40:20;100727.90;;;25.46;45.32
39275;BME280;24980;48.874;2.332;2022-09-09T13:42:42;100730.57;;;25.47;45.32
39275;BME280;24980;48.874;2.332;2022-09-09T13:45:20;100730.88;;;25.46;45.33
39275;BME280;24980;48.874;2.332;2022-09-09T13:47:45;100729.14;;;25.46;45.35
39275;BME280;24980;48.874;2.332;2022-09-09T13:50:25;100723.95;;;25.47;45.36
39275;BME280;24980;48.874;2.332;2022-09-09T13:55:14;100713.51;;;25.47;45.37
39275;BME280;24980;48.874;2.332;2022-09-09T13:57:56;100710.09;;;25.48;45.38
39275;BME280;24980;48.874;2.332;2022-09-09T14:00:15;100702.44;;;25.49;45.39
39275;BME280;24980;48.874;2.332;2022-09-09T14:02:45;100706.94;;;25.49;45.42
39275;BME280;24980;48.874;2.332;2022-09-09T14:05:15;100707.72;;;25.49;45.43
39275;BME280;24980;48.874;2.332;2022-09-09T14:07:45;100706.36;;;25.49;45.43
39275;BME280;24980;48.874;2.332;2022-09-09T14:10:16;100705.16;;;25.49;45.45
39275;BME280;24980;48.874;2.332;2022-09-09T14:12:46;100705.57;;;25.49;45.46
39275;BME280;24980;48.874;2.332;2022-09-09T14:15:16;100698.89;;;25.49;45.47
39275;BME280;24980;48.874;2.332;2022-09-09T14:17:46;100696.86;;;25.49;45.50